createdAt,value
2022-12-03T00:01:53.997Z,7.20
2022-12-03T00:04:25.961Z,7.10
2022-12-03T00:06:57.876Z,7.10
2022-12-03T00:09:29.747Z,7.20
2022-12-03T00:12:01.700Z,7.40
2022-12-03T00:14:33.547Z,7.40
2022-12-03T00:17:05.469Z,7.30
2022-12-03T00:19:37.378Z,7.30
2022-12-03T00:22:09.394Z,7.30
2022-12-03T00:24:41.278Z,7.20
2022-12-03T00:27:13.172Z,7.10
2022-12-03T00:29:45.078Z,7.20
2022-12-03T00:32:17.052Z,7.20
2022-12-03T00:34:49.010Z,7.20
2022-12-03T00:37:21.382Z,7.20
2022-12-03T00:39:53.269Z,7.10
2022-12-03T00:42:25.182Z,7.10
2022-12-03T00:44:57.125Z,7.20
2022-12-03T00:47:29.140Z,7.20
2022-12-03T00:50:01.145Z,7.20
2022-12-03T00:52:33.030Z,7.20
2022-12-03T00:55:05.323Z,7.20
2022-12-03T00:57:37.286Z,7.20
2022-12-03T01:00:10.306Z,7.10
2022-12-03T01:02:42.448Z,7.20
2022-12-03T01:05:14.424Z,7.20
2022-12-03T01:07:47.055Z,7.30
2022-12-03T01:10:19.329Z,7.30
2022-12-03T01:12:51.444Z,7.30
2022-12-03T01:15:23.357Z,7.30
2022-12-03T01:17:55.334Z,7.30
2022-12-03T01:20:27.814Z,7.40
2022-12-03T01:22:59.692Z,7.40
2022-12-03T01:25:31.557Z,7.50
2022-12-03T01:28:03.592Z,7.50
2022-12-03T01:30:55.529Z,7.40
2022-12-03T01:33:27.487Z,7.30
2022-12-03T01:35:59.325Z,7.40
2022-12-03T01:38:31.218Z,7.40
2022-12-03T01:41:07.209Z,7.50
2022-12-03T01:43:42.177Z,7.40
2022-12-03T01:46:17.958Z,7.30
2022-12-03T01:48:52.471Z,7.30
2022-12-03T01:51:24.473Z,7.40
2022-12-03T01:54:00.086Z,7.40
2022-12-03T01:56:31.992Z,7.40
2022-12-03T01:59:03.856Z,7.40
2022-12-03T02:01:35.855Z,7.30
2022-12-03T02:04:12.182Z,7.30
2022-12-03T02:06:44.900Z,7.20
2022-12-03T02:09:16.843Z,7.20
2022-12-03T02:11:50.564Z,7.20
2022-12-03T02:14:22.512Z,7.10
2022-12-03T02:16:54.502Z,7.00
2022-12-03T02:19:29.784Z,7.00
2022-12-03T02:22:08.293Z,7.10
2022-12-03T02:24:55.272Z,7.20
2022-12-03T02:27:28.734Z,7.20
2022-12-03T02:30:00.620Z,7.30
2022-12-03T02:32:32.533Z,7.30
2022-12-03T02:35:15.389Z,7.20
2022-12-03T02:37:49.798Z,7.20
2022-12-03T02:40:24.761Z,7.20
2022-12-03T02:42:59.875Z,7.20
2022-12-03T02:45:38.709Z,7.20
2022-12-03T02:48:16.923Z,7.20
2022-12-03T02:50:55.385Z,7.30
2022-12-03T02:53:31.428Z,7.20
2022-12-03T02:56:05.836Z,7.20
2022-12-03T02:58:38.742Z,7.30
2022-12-03T03:01:11.277Z,7.30
2022-12-03T03:03:44.630Z,7.30
2022-12-03T03:06:19.146Z,7.30
2022-12-03T03:08:51.503Z,7.40
2022-12-03T03:11:24.509Z,7.50
2022-12-03T03:13:56.519Z,7.50
2022-12-03T03:16:28.503Z,7.40
2022-12-03T03:19:01.209Z,7.30
2022-12-03T03:21:33.479Z,7.30
2022-12-03T03:24:05.647Z,7.20
2022-12-03T03:26:37.576Z,7.20
2022-12-03T03:29:09.889Z,7.10
2022-12-03T03:31:43.985Z,7.20
2022-12-03T03:34:16.347Z,7.20
2022-12-03T03:36:48.352Z,7.20
2022-12-03T03:39:20.314Z,7.40
2022-12-03T03:41:52.296Z,7.40
2022-12-03T03:44:24.307Z,7.40
2022-12-03T03:46:57.314Z,7.40
2022-12-03T03:49:29.623Z,7.40
2022-12-03T03:52:01.633Z,7.40
2022-12-03T03:54:33.642Z,7.50
2022-12-03T03:57:05.985Z,7.50
2022-12-03T03:59:38.101Z,7.50
2022-12-03T04:02:21.384Z,7.50
2022-12-03T04:04:54.237Z,7.50
2022-12-03T04:07:26.430Z,7.50
2022-12-03T04:09:58.353Z,7.50
2022-12-03T04:12:49.285Z,7.50
2022-12-03T04:15:21.252Z,7.40
2022-12-03T04:18:11.877Z,7.40
2022-12-03T04:20:46.423Z,7.50
2022-12-03T04:23:18.614Z,7.60
2022-12-03T04:26:09.168Z,7.60
2022-12-03T04:28:49.907Z,7.60
2022-12-03T04:31:40.482Z,7.80
2022-12-03T04:34:34.445Z,7.80
2022-12-03T04:37:06.507Z,7.80
2022-12-03T04:39:38.356Z,7.70
2022-12-03T04:42:10.239Z,7.60
2022-12-03T04:44:42.356Z,7.60
2022-12-03T04:47:23.025Z,7.60
2022-12-03T04:49:55.188Z,7.60
2022-12-03T04:52:27.190Z,7.70
2022-12-03T04:54:59.164Z,7.70
2022-12-03T04:57:31.031Z,7.70
2022-12-03T05:00:04.205Z,7.70
2022-12-03T05:02:36.216Z,7.80
2022-12-03T05:05:08.601Z,7.80
2022-12-03T05:07:40.541Z,7.80
2022-12-03T05:10:12.772Z,7.70
2022-12-03T05:12:44.701Z,7.70
2022-12-03T05:15:16.786Z,7.70
2022-12-03T05:17:50.252Z,7.80
2022-12-03T05:20:40.595Z,7.80
2022-12-03T05:23:13.846Z,7.70
2022-12-03T05:25:45.792Z,7.80
2022-12-03T05:28:17.883Z,7.70
2022-12-03T05:30:50.224Z,7.80
2022-12-03T05:33:22.230Z,7.90
2022-12-03T05:35:54.202Z,7.80
2022-12-03T05:38:26.180Z,7.80
2022-12-03T05:40:58.103Z,7.90
2022-12-03T05:43:29.951Z,8.00
2022-12-03T05:46:02.062Z,7.80
2022-12-03T05:48:35.082Z,7.80
2022-12-03T05:51:07.153Z,7.80
2022-12-03T05:53:39.337Z,7.80
2022-12-03T05:56:11.220Z,7.90
2022-12-03T05:59:01.751Z,8.00
2022-12-03T06:01:34.472Z,8.00
2022-12-03T06:04:06.524Z,8.00
2022-12-03T06:06:38.579Z,8.00
2022-12-03T06:09:10.759Z,8.10
2022-12-03T06:11:42.675Z,8.10
2022-12-03T06:14:14.952Z,8.20
2022-12-03T06:16:47.058Z,8.20
2022-12-03T06:19:19.032Z,8.20
2022-12-03T06:21:51.010Z,8.20
2022-12-03T06:24:22.967Z,8.30
2022-12-03T06:26:54.876Z,8.30
2022-12-03T06:29:26.819Z,8.20
2022-12-03T06:31:58.691Z,8.20
2022-12-03T06:34:30.873Z,8.20
2022-12-03T06:37:02.774Z,8.20
2022-12-03T06:39:34.684Z,8.20
2022-12-03T06:42:06.894Z,8.20
2022-12-03T06:44:38.820Z,8.20
2022-12-03T06:47:10.743Z,8.30
2022-12-03T06:49:42.655Z,8.30
2022-12-03T06:52:14.649Z,8.30
2022-12-03T06:54:46.536Z,8.30
2022-12-03T06:57:18.501Z,8.20
2022-12-03T06:59:50.359Z,8.30
2022-12-03T07:02:22.299Z,8.40
2022-12-03T07:04:54.921Z,8.60
2022-12-03T07:07:27.079Z,8.90
2022-12-03T07:09:59.296Z,8.90
2022-12-03T07:12:32.803Z,8.90
2022-12-03T07:15:05.121Z,8.80
2022-12-03T07:17:37.112Z,8.80
2022-12-03T07:20:09.409Z,8.80
2022-12-03T07:22:41.324Z,8.80
2022-12-03T07:25:18.233Z,8.80
2022-12-03T07:27:54.965Z,8.80
2022-12-03T07:30:27.810Z,8.80
2022-12-03T07:33:01.240Z,8.80
2022-12-03T07:35:33.112Z,8.90
2022-12-03T07:38:05.162Z,9.00
2022-12-03T07:40:37.111Z,9.10
2022-12-03T07:43:09.017Z,9.20
2022-12-03T07:45:41.151Z,9.20
2022-12-03T07:48:13.060Z,9.30
2022-12-03T07:50:45.089Z,9.40
2022-12-03T07:53:16.908Z,9.60
2022-12-03T07:55:48.853Z,9.70
2022-12-03T07:58:20.757Z,9.70
2022-12-03T08:00:52.874Z,9.70
2022-12-03T08:03:24.915Z,9.80
2022-12-03T08:05:56.732Z,9.80
2022-12-03T08:08:28.634Z,9.90
2022-12-03T08:11:01.869Z,9.90
2022-12-03T08:13:35.081Z,9.80
2022-12-03T08:16:16.802Z,9.80
2022-12-03T08:18:50.475Z,9.80
2022-12-03T08:21:23.292Z,9.90
2022-12-03T08:23:56.522Z,10.00
2022-12-03T08:26:28.784Z,10.20
2022-12-03T08:29:00.785Z,10.20
2022-12-03T08:31:33.856Z,10.30
2022-12-03T08:34:19.900Z,10.30
2022-12-03T08:36:57.904Z,10.40
2022-12-03T08:39:43.594Z,10.40
2022-12-03T08:42:41.867Z,10.40
2022-12-03T08:45:29.631Z,10.40
2022-12-03T08:48:12.633Z,10.40
2022-12-03T08:50:45.584Z,10.50
2022-12-03T08:53:33.008Z,10.50
2022-12-03T08:56:06.928Z,10.60
2022-12-03T08:58:44.132Z,10.50
2022-12-03T09:01:24.862Z,10.50
2022-12-03T09:04:05.391Z,10.50
2022-12-03T09:06:37.287Z,10.60
2022-12-03T09:09:09.277Z,10.60
2022-12-03T09:11:43.212Z,10.60
2022-12-03T09:14:18.775Z,10.60
2022-12-03T09:16:55.690Z,10.60
2022-12-03T09:19:30.984Z,10.60
2022-12-03T09:22:02.944Z,10.60
2022-12-03T09:24:34.854Z,10.60
2022-12-03T09:27:06.730Z,10.60
2022-12-03T09:29:38.758Z,10.60
2022-12-03T09:32:15.216Z,10.70
2022-12-03T09:34:50.028Z,10.70
2022-12-03T09:37:22.317Z,10.70
2022-12-03T09:39:54.198Z,10.70
2022-12-03T09:42:26.822Z,10.70
2022-12-03T09:44:58.798Z,10.80
2022-12-03T09:47:31.723Z,10.80
2022-12-03T09:50:04.849Z,10.90
2022-12-03T09:52:36.761Z,10.90
2022-12-03T09:55:16.577Z,10.80
2022-12-03T09:57:48.514Z,10.90
2022-12-03T10:00:29.971Z,10.90
2022-12-03T10:03:04.729Z,10.90
2022-12-03T10:05:36.789Z,10.90
2022-12-03T10:08:12.128Z,11.00
2022-12-03T10:10:44.487Z,11.00
2022-12-03T10:13:37.375Z,11.00
2022-12-03T10:16:15.484Z,11.00
2022-12-03T10:18:51.226Z,11.00
2022-12-03T10:21:37.924Z,10.90
2022-12-03T10:24:30.817Z,10.90
2022-12-03T10:27:05.844Z,11.00
2022-12-03T10:29:37.822Z,11.00
2022-12-03T10:32:11.942Z,11.10
2022-12-03T10:34:44.824Z,11.10
2022-12-03T10:37:18.450Z,11.20
2022-12-03T10:39:56.294Z,11.20
2022-12-03T10:42:31.047Z,11.20
2022-12-03T10:45:29.528Z,11.20
2022-12-03T10:48:14.391Z,11.30
2022-12-03T10:51:12.596Z,11.30
2022-12-03T10:53:44.719Z,11.30
2022-12-03T10:56:25.540Z,11.30
2022-12-03T10:58:57.703Z,11.30
2022-12-03T11:01:31.426Z,11.40
2022-12-03T11:04:05.027Z,11.40
2022-12-03T11:06:37.281Z,11.40
2022-12-03T11:09:22.428Z,11.50
2022-12-03T11:11:55.112Z,11.50
2022-12-03T11:14:48.782Z,11.50
2022-12-03T11:17:39.574Z,11.60
2022-12-03T11:20:22.779Z,11.60
2022-12-03T11:22:56.305Z,11.50
2022-12-03T11:25:28.371Z,11.60
2022-12-03T11:28:15.111Z,11.60
2022-12-03T11:30:53.539Z,11.70
2022-12-03T11:33:27.166Z,11.60
2022-12-03T11:36:08.024Z,11.60
2022-12-03T11:38:52.209Z,11.50
2022-12-03T11:41:28.804Z,11.50
2022-12-03T11:44:04.969Z,11.50
2022-12-03T11:46:36.901Z,11.50
2022-12-03T11:49:31.737Z,11.50
2022-12-03T11:52:19.394Z,11.50
2022-12-03T11:54:57.611Z,11.60
2022-12-03T11:57:34.798Z,11.50
2022-12-03T12:00:23.954Z,11.60
2022-12-03T12:02:57.263Z,11.60
2022-12-03T12:05:32.616Z,11.70
2022-12-03T12:08:04.728Z,11.70
2022-12-03T12:10:49.360Z,11.70
2022-12-03T12:13:36.398Z,11.70
2022-12-03T12:16:08.876Z,11.70
2022-12-03T12:18:55.755Z,11.80
2022-12-03T12:21:44.106Z,11.80
2022-12-03T12:24:31.083Z,11.80
2022-12-03T12:27:17.409Z,11.80
2022-12-03T12:29:55.607Z,11.80
2022-12-03T12:32:29.381Z,11.80
2022-12-03T12:35:21.172Z,11.80
2022-12-03T12:38:20.312Z,11.80
2022-12-03T12:40:53.005Z,11.70
2022-12-03T12:43:32.606Z,11.70
2022-12-03T12:46:46.232Z,11.70
2022-12-03T12:49:14.044Z,11.60
2022-12-03T12:51:49.345Z,11.50
2022-12-03T12:54:21.432Z,11.50
2022-12-03T12:56:53.391Z,11.40
2022-12-03T12:59:25.977Z,11.30
2022-12-03T13:02:01.119Z,11.30
2022-12-03T13:04:40.032Z,11.30
2022-12-03T13:07:11.946Z,11.30
2022-12-03T13:09:43.912Z,11.40
2022-12-03T13:12:27.002Z,11.40
2022-12-03T13:15:03.537Z,11.40
2022-12-03T13:17:35.502Z,11.50
2022-12-03T13:20:18.991Z,11.50
2022-12-03T13:22:50.886Z,11.50
2022-12-03T13:28:34.139Z,11.60
2022-12-03T13:31:27.746Z,11.60
2022-12-03T13:34:01.797Z,11.70
2022-12-03T13:36:41.873Z,11.70
2022-12-03T13:39:33.373Z,11.80
2022-12-03T13:42:32.706Z,11.70
2022-12-03T13:45:28.390Z,11.80
2022-12-03T13:48:03.311Z,11.80
2022-12-03T13:50:45.129Z,11.80
2022-12-03T13:53:36.633Z,11.80
2022-12-03T13:56:30.470Z,11.80
2022-12-03T13:59:04.068Z,11.80
2022-12-03T14:01:36.458Z,11.80
2022-12-03T14:04:08.454Z,11.80
2022-12-03T14:06:40.449Z,11.90
2022-12-03T14:09:14.766Z,11.90
2022-12-03T14:12:18.764Z,11.90
2022-12-03T14:14:50.576Z,11.90
2022-12-03T14:17:22.518Z,11.90
2022-12-03T14:19:54.810Z,11.90
2022-12-03T14:22:27.002Z,12.00
2022-12-03T14:24:58.939Z,12.00
2022-12-03T14:27:30.997Z,12.00
2022-12-03T14:30:03.730Z,12.00
2022-12-03T14:32:35.548Z,12.00
2022-12-03T14:35:10.037Z,12.00
2022-12-03T14:37:42.127Z,12.00
2022-12-03T14:40:19.644Z,12.00
2022-12-03T14:42:53.269Z,11.90
2022-12-03T14:45:27.648Z,12.00
2022-12-03T14:47:59.632Z,12.00
2022-12-03T14:50:31.548Z,12.00
2022-12-03T14:53:03.469Z,12.00
2022-12-03T14:55:35.383Z,12.00
2022-12-03T14:58:07.280Z,12.00
2022-12-03T15:00:39.257Z,12.00
2022-12-03T15:03:11.125Z,12.00
2022-12-03T15:05:42.952Z,12.00
2022-12-03T15:08:14.885Z,12.00
2022-12-03T15:10:46.868Z,12.00
2022-12-03T15:13:18.725Z,12.00
2022-12-03T15:15:50.704Z,12.00
2022-12-03T15:18:24.068Z,12.00
2022-12-03T15:20:56.372Z,12.00
2022-12-03T15:23:28.329Z,12.00
2022-12-03T15:26:00.357Z,12.00
2022-12-03T15:28:32.303Z,11.90
2022-12-03T15:31:04.458Z,11.80
2022-12-03T15:33:36.417Z,11.90
2022-12-03T15:36:08.595Z,11.80
2022-12-03T15:38:40.636Z,11.70
2022-12-03T15:41:21.639Z,11.70
2022-12-03T15:43:53.755Z,11.60
2022-12-03T15:46:27.912Z,11.60
2022-12-03T15:49:00.106Z,11.60
2022-12-03T15:51:32.059Z,11.60
2022-12-03T15:54:04.112Z,11.60
2022-12-03T15:56:37.750Z,11.60
2022-12-03T15:59:09.784Z,11.60
2022-12-03T16:01:41.795Z,11.50
2022-12-03T16:04:13.689Z,11.60
2022-12-03T16:06:45.603Z,11.60
2022-12-03T16:09:19.099Z,11.60
2022-12-03T16:11:54.287Z,11.60
2022-12-03T16:14:26.129Z,11.60
2022-12-03T16:16:59.985Z,11.60
2022-12-03T16:19:31.891Z,11.60
2022-12-03T16:22:06.237Z,11.70
2022-12-03T16:24:38.203Z,11.70
2022-12-03T16:27:10.735Z,11.70
2022-12-03T16:29:42.781Z,11.80
2022-12-03T16:32:14.949Z,11.90
2022-12-03T16:34:49.824Z,11.80
2022-12-03T16:37:21.700Z,11.80
2022-12-03T16:39:53.925Z,11.80
2022-12-03T16:42:27.330Z,11.80
2022-12-03T16:45:04.978Z,11.70
2022-12-03T16:47:37.018Z,11.60
2022-12-03T16:50:14.581Z,11.60
2022-12-03T16:52:52.670Z,11.50
2022-12-03T16:55:24.861Z,11.50
2022-12-03T16:57:56.853Z,11.40
2022-12-03T17:00:28.876Z,11.50
2022-12-03T17:03:00.876Z,11.40
2022-12-03T17:05:35.808Z,11.60
2022-12-03T17:08:07.818Z,11.60
2022-12-03T17:10:41.990Z,11.60
2022-12-03T17:13:13.903Z,11.60
2022-12-03T17:15:45.858Z,11.60
2022-12-03T17:18:17.874Z,11.60
2022-12-03T17:20:50.769Z,11.60
2022-12-03T17:23:25.591Z,11.60
2022-12-03T17:25:57.456Z,11.50
2022-12-03T17:28:29.494Z,11.50
2022-12-03T17:31:01.510Z,11.60
2022-12-03T17:33:33.417Z,11.50
2022-12-03T17:36:07.274Z,11.60
2022-12-03T17:38:39.619Z,11.50
2022-12-03T17:41:13.862Z,11.50
2022-12-03T17:43:46.050Z,11.50
2022-12-03T17:46:22.526Z,11.40
2022-12-03T17:48:54.439Z,11.40
2022-12-03T17:51:26.448Z,11.50
2022-12-03T17:53:58.642Z,11.50
2022-12-03T17:56:30.982Z,11.40
2022-12-03T17:59:05.897Z,11.40
2022-12-03T18:01:40.549Z,11.50
2022-12-03T18:04:12.878Z,11.50
2022-12-03T18:06:44.771Z,11.40
2022-12-03T18:09:18.049Z,11.40
2022-12-03T18:11:50.562Z,11.40
2022-12-03T18:14:22.498Z,11.40
2022-12-03T18:16:54.563Z,11.40
2022-12-03T18:19:26.560Z,11.40
2022-12-03T18:21:58.460Z,11.40
2022-12-03T18:24:30.341Z,11.40
2022-12-03T18:27:02.200Z,11.30
2022-12-03T18:29:34.169Z,11.30
2022-12-03T18:32:27.286Z,11.40
2022-12-03T18:35:00.522Z,11.40
2022-12-03T18:37:33.096Z,11.30
2022-12-03T18:40:12.795Z,11.40
2022-12-03T18:42:45.396Z,11.40
2022-12-03T18:45:17.434Z,11.30
2022-12-03T18:47:49.665Z,11.20
2022-12-03T18:50:21.715Z,11.20
2022-12-03T18:52:53.749Z,11.10
2022-12-03T18:55:29.541Z,11.10
2022-12-03T18:58:01.610Z,11.10
2022-12-03T19:00:35.670Z,11.00
2022-12-03T19:03:07.816Z,11.00
2022-12-03T19:05:39.809Z,11.10
2022-12-03T19:08:14.970Z,11.10
2022-12-03T19:10:59.349Z,11.00
2022-12-03T19:13:31.613Z,11.00
2022-12-03T19:16:08.250Z,11.00
2022-12-03T19:18:40.221Z,11.00
2022-12-03T19:21:14.875Z,11.00
2022-12-03T19:24:16.000Z,11.10
2022-12-03T19:26:38.704Z,11.00
2022-12-03T19:29:10.731Z,11.00
2022-12-03T19:31:42.685Z,11.00
2022-12-03T19:34:14.659Z,11.00
2022-12-03T19:36:47.609Z,11.10
2022-12-03T19:39:19.660Z,10.90
2022-12-03T19:41:51.645Z,10.80
2022-12-03T19:44:23.620Z,10.70
2022-12-03T19:46:56.940Z,10.60
2022-12-03T19:49:28.961Z,10.40
2022-12-03T19:52:00.860Z,10.40
2022-12-03T19:54:32.759Z,10.40
2022-12-03T19:57:04.741Z,10.40
2022-12-03T19:59:36.692Z,10.40
2022-12-03T20:02:10.500Z,10.50
2022-12-03T20:04:42.680Z,10.50
2022-12-03T20:07:14.632Z,10.40
2022-12-03T20:09:49.059Z,10.40
2022-12-03T20:12:21.113Z,10.50
2022-12-03T20:14:53.137Z,10.60
2022-12-03T20:17:25.155Z,10.70
2022-12-03T20:19:57.259Z,10.80
2022-12-03T20:22:32.739Z,10.90
2022-12-03T20:25:05.208Z,10.90
2022-12-03T20:27:37.428Z,10.90
2022-12-03T20:30:09.838Z,10.90
2022-12-03T20:32:45.355Z,11.00
2022-12-03T20:35:17.693Z,11.00
2022-12-03T20:37:49.609Z,10.90
2022-12-03T20:40:21.838Z,10.90
2022-12-03T20:42:53.756Z,11.00
2022-12-03T20:45:26.947Z,11.10
2022-12-03T20:47:58.897Z,11.20
2022-12-03T20:50:31.030Z,11.30
2022-12-03T20:53:23.642Z,11.30
2022-12-03T20:55:58.855Z,11.30
2022-12-03T20:58:31.937Z,11.40
2022-12-03T21:01:15.349Z,11.40
2022-12-03T21:03:49.175Z,11.40
2022-12-03T21:06:22.211Z,11.40
2022-12-03T21:08:55.580Z,11.30
2022-12-03T21:11:31.264Z,11.30
2022-12-03T21:14:04.200Z,11.40
2022-12-03T21:17:07.238Z,11.40
2022-12-03T21:19:31.619Z,11.50
2022-12-03T21:22:03.710Z,11.50
2022-12-03T21:24:35.773Z,11.50
2022-12-03T21:27:07.716Z,11.60
2022-12-03T21:29:39.631Z,11.60
2022-12-03T21:32:11.539Z,11.60
2022-12-03T21:34:43.440Z,11.70
2022-12-03T21:37:15.316Z,11.70
2022-12-03T21:39:47.223Z,11.70
2022-12-03T21:42:35.317Z,11.70
2022-12-03T21:45:09.361Z,11.80
2022-12-03T21:47:41.476Z,11.70
2022-12-03T21:50:13.537Z,11.80
2022-12-03T21:52:45.505Z,11.80
2022-12-03T21:55:17.536Z,11.80
2022-12-03T21:57:49.498Z,11.80
2022-12-03T22:00:21.868Z,11.80
2022-12-03T22:02:56.546Z,11.80
2022-12-03T22:05:28.593Z,11.70
2022-12-03T22:08:00.543Z,11.80
2022-12-03T22:10:32.509Z,11.80
2022-12-03T22:13:04.424Z,11.80
2022-12-03T22:15:40.147Z,11.70
2022-12-03T22:18:12.047Z,11.50
2022-12-03T22:20:43.909Z,11.50
2022-12-03T22:23:15.760Z,11.50
2022-12-03T22:25:47.619Z,11.40
2022-12-03T22:28:19.517Z,11.40
2022-12-03T22:30:51.579Z,11.40
2022-12-03T22:33:24.357Z,11.40
2022-12-03T22:36:01.332Z,11.40
2022-12-03T22:38:33.906Z,11.40
2022-12-03T22:41:07.966Z,11.40
2022-12-03T22:43:40.165Z,11.50
2022-12-03T22:46:13.026Z,11.50
2022-12-03T22:48:46.799Z,11.50
2022-12-03T22:51:21.816Z,11.60
2022-12-03T22:53:55.714Z,11.60
2022-12-03T22:56:29.199Z,11.60
2022-12-03T22:59:01.219Z,11.60
2022-12-03T23:01:42.237Z,11.60
2022-12-03T23:04:14.292Z,11.60
2022-12-03T23:06:46.284Z,11.60
2022-12-03T23:09:18.209Z,11.70
2022-12-03T23:11:50.245Z,11.70
2022-12-03T23:14:22.160Z,11.70
2022-12-03T23:16:53.981Z,11.80
2022-12-03T23:19:25.897Z,11.70
2022-12-03T23:21:58.249Z,11.70
2022-12-03T23:24:30.236Z,11.70
2022-12-03T23:27:11.233Z,11.70
2022-12-03T23:29:43.127Z,11.70
2022-12-03T23:32:15.645Z,11.70
2022-12-03T23:34:47.622Z,11.70
2022-12-03T23:37:19.593Z,11.70
2022-12-03T23:39:51.588Z,11.60
2022-12-03T23:42:24.078Z,11.70
2022-12-03T23:44:55.990Z,11.70
2022-12-03T23:47:28.005Z,11.80
2022-12-03T23:49:59.817Z,11.80
2022-12-03T23:52:31.767Z,11.80
2022-12-03T23:55:04.023Z,11.80
2022-12-03T23:57:36.217Z,11.80
